Time;durP1;ratioP1;P1;durP2;ratioP2;P2;SDS_P1;SDS_P2;PMS_P1;PMS_P2;Temp;Humidity;BMP_temperature;BMP_pressure;BME280_temperature;BME280_humidity;BME280_pressure;Samples;Min_cycle;Max_cycle;Signal;HPM_P1;HPM_P2
2023/01/09 00:02:29;;;;;;;29.50;17.23;;;;;;;6.44;100.00;99700.28;5574913;32;34990;-88
2023/01/09 00:05:32;;;;;;;28.05;17.23;;;;;;;6.46;100.00;99697.59;5569843;32;33939;-88
2023/01/09 00:08:35;;;;;;;29.48;17.85;;;;;;;6.54;100.00;99702.53;5572752;32;33732;-88
2023/01/09 00:11:38;;;;;;;28.30;17.20;;;;;;;6.54;100.00;99702.53;5574031;32;32810;-88
2023/01/09 00:14:41;;;;;;;26.65;16.75;;;;;;;6.51;100.00;99702.66;5570157;32;34001;-88
2023/01/09 00:17:46;;;;;;;28.25;17.62;;;;;;;6.51;100.00;99707.91;5573109;32;34395;-88
2023/01/09 00:20:49;;;;;;;25.67;17.25;;;;;;;6.51;100.00;99708.78;5574485;32;34373;-88
2023/01/09 00:23:53;;;;;;;28.62;17.55;;;;;;;6.51;100.00;99706.16;5572567;32;34529;-88
2023/01/09 00:26:56;;;;;;;27.35;17.67;;;;;;;6.51;100.00;99700.88;5568751;32;32784;-88
2023/01/09 00:29:59;;;;;;;29.70;17.08;;;;;;;6.55;100.00;99694.53;5571214;32;34748;-88
2023/01/09 00:33:02;;;;;;;29.08;17.35;;;;;;;6.42;100.00;99696.00;5567453;32;34046;-87
2023/01/09 00:36:05;;;;;;;29.42;17.60;;;;;;;6.51;100.00;99686.84;5565050;32;34761;-87
2023/01/09 00:39:08;;;;;;;28.83;17.65;;;;;;;6.41;100.00;99684.62;5569189;32;34755;-87
2023/01/09 00:42:16;;;;;;;25.73;16.35;;;;;;;6.49;100.00;99688.69;5569740;32;34096;-87
2023/01/09 00:45:27;;;;;;;24.80;15.52;;;;;;;6.42;100.00;99681.06;5569114;32;34356;-87
2023/01/09 00:48:32;;;;;;;26.65;16.17;;;;;;;6.47;100.00;99679.09;5569207;32;34195;-87
2023/01/09 00:51:38;;;;;;;27.17;16.60;;;;;;;6.49;100.00;99679.00;5569112;32;34558;-87
2023/01/09 00:54:41;;;;;;;24.20;15.85;;;;;;;6.47;100.00;99676.44;5569271;32;33960;-88
2023/01/09 00:57:44;;;;;;;25.52;16.12;;;;;;;6.46;100.00;99663.34;5567962;32;34377;-87
2023/01/09 01:00:47;;;;;;;24.80;16.45;;;;;;;6.48;100.00;99669.38;5572799;32;34483;-88
2023/01/09 01:03:50;;;;;;;25.25;16.17;;;;;;;6.49;100.00;99659.72;5568455;32;32414;-88
2023/01/09 01:10:15;;;;;;;;;;;;;;;6.56;100.00;99653.25;5569375;32;33965;-92
2023/01/09 01:13:18;;;;;;;23.90;14.60;;;;;;;6.53;100.00;99662.12;5569284;32;34739;-89
2023/01/09 01:16:21;;;;;;;24.25;15.38;;;;;;;6.57;100.00;99655.81;5569564;32;33614;-88
2023/01/09 01:19:24;;;;;;;24.10;15.98;;;;;;;6.58;100.00;99648.75;5570420;32;33959;-87
2023/01/09 01:22:27;;;;;;;25.85;15.57;;;;;;;6.57;100.00;99647.03;5569164;32;34009;-88
2023/01/09 01:25:29;;;;;;;27.17;16.23;;;;;;;6.66;100.00;99635.22;5571380;32;33790;-88
2023/01/09 01:28:32;;;;;;;25.67;15.38;;;;;;;6.55;100.00;99643.63;5579114;32;33829;-87
2023/01/09 01:31:35;;;;;;;23.38;14.52;;;;;;;6.46;100.00;99639.62;5584869;32;34756;-88
2023/01/09 01:34:38;;;;;;;21.90;14.68;;;;;;;6.45;100.00;99636.13;5582017;32;35393;-87
2023/01/09 01:37:41;;;;;;;22.80;14.45;;;;;;;6.51;100.00;99631.50;5582507;32;32847;-87
2023/01/09 01:40:43;;;;;;;26.20;15.18;;;;;;;6.63;100.00;99622.22;5582048;32;32717;-87
2023/01/09 01:43:53;;;;;;;24.05;14.98;;;;;;;6.77;100.00;99614.50;5581670;32;34454;-87
2023/01/09 01:46:56;;;;;;;23.27;14.48;;;;;;;6.85;100.00;99607.09;5583415;32;34768;-88
2023/01/09 01:50:03;;;;;;;22.40;13.93;;;;;;;6.91;100.00;99610.38;5579713;32;34822;-87
2023/01/09 01:53:12;;;;;;;21.10;13.77;;;;;;;6.95;100.00;99604.87;5583738;32;35020;-87
2023/01/09 01:56:19;;;;;;;21.48;13.57;;;;;;;7.06;100.00;99600.88;5578923;32;35055;-87
2023/01/09 01:59:35;;;;;;;22.85;14.02;;;;;;;7.01;100.00;99599.31;5569003;32;34297;-87
2023/01/09 02:02:39;;;;;;;22.20;14.20;;;;;;;7.07;100.00;99597.31;5568846;32;33619;-88
2023/01/09 02:05:43;;;;;;;19.87;13.57;;;;;;;7.08;100.00;99594.63;5568940;32;34430;-87
2023/01/09 02:08:46;;;;;;;21.48;14.55;;;;;;;7.16;100.00;99583.69;5568803;32;33659;-87
2023/01/09 02:11:51;;;;;;;21.58;14.38;;;;;;;7.19;100.00;99588.81;5568747;32;34271;-87
2023/01/09 02:15:20;;;;;;;21.48;13.68;;;;;;;7.31;100.00;99589.16;5567419;32;34753;-88
2023/01/09 02:18:38;;;;;;;21.48;13.80;;;;;;;7.26;100.00;99590.22;5566876;32;33808;-88
2023/01/09 02:22:25;;;;;;;23.52;14.35;;;;;;;7.32;100.00;99573.25;5580411;32;34016;-88
2023/01/09 02:25:42;;;;;;;21.62;13.50;;;;;;;7.34;100.00;99570.56;5569585;32;34171;-88
2023/01/09 02:29:03;;;;;;;21.67;13.30;;;;;;;7.36;100.00;99566.03;5567874;32;35309;-88
2023/01/09 02:32:24;;;;;;;22.77;13.43;;;;;;;7.37;100.00;99568.59;5568015;32;33720;-88
2023/01/09 02:35:48;;;;;;;20.83;13.95;;;;;;;7.31;100.00;99555.72;5568162;32;34067;-88
2023/01/09 02:39:18;;;;;;;21.62;12.55;;;;;;;7.39;100.00;99561.47;5568045;32;33206;-88
2023/01/09 02:42:22;;;;;;;22.23;13.00;;;;;;;7.51;100.00;99554.75;5568479;32;34073;-88
2023/01/09 02:45:25;;;;;;;21.20;12.93;;;;;;;7.50;100.00;99555.62;5575383;32;34825;-88
2023/01/09 02:48:29;;;;;;;24.37;13.20;;;;;;;7.51;100.00;99546.81;5581165;32;34804;-88
2023/01/09 02:52:13;;;;;;;22.65;14.38;;;;;;;7.60;100.00;99548.09;5568333;32;34093;-88
2023/01/09 02:55:28;;;;;;;20.83;13.07;;;;;;;7.58;100.00;99557.06;5547298;31;34556;-88
2023/01/09 02:58:37;;;;;;;20.60;13.52;;;;;;;7.53;100.00;99558.16;5567675;32;35333;-88
2023/01/09 03:01:51;;;;;;;22.70;13.35;;;;;;;7.50;100.00;99549.53;5568058;32;34093;-88
2023/01/09 03:05:09;;;;;;;23.08;13.65;;;;;;;7.46;100.00;99534.78;5567586;32;34442;-88
2023/01/09 03:08:16;;;;;;;23.55;13.98;;;;;;;7.45;100.00;99530.44;5570370;32;33941;-88
2023/01/09 03:11:20;;;;;;;22.77;13.77;;;;;;;7.39;100.00;99521.06;5576511;32;34023;-88
2023/01/09 03:14:25;;;;;;;20.58;14.38;;;;;;;7.48;100.00;99517.94;5571078;32;34748;-88
2023/01/09 03:17:36;;;;;;;24.02;14.05;;;;;;;7.46;100.00;99517.16;5567273;32;33855;-87
2023/01/09 03:20:43;;;;;;;20.12;13.88;;;;;;;7.38;100.00;99519.31;5568882;32;34445;-87
2023/01/09 03:23:58;;;;;;;20.83;13.27;;;;;;;7.36;100.00;99523.81;5568734;32;33718;-87
2023/01/09 03:27:01;;;;;;;21.77;13.95;;;;;;;7.31;100.00;99529.34;5569853;32;34314;-88
2023/01/09 03:30:04;;;;;;;21.75;13.23;;;;;;;7.31;100.00;99524.06;5571337;32;34170;-87
2023/01/09 03:33:07;;;;;;;25.33;14.73;;;;;;;7.28;100.00;99522.44;5570015;32;34331;-88
2023/01/09 03:36:12;;;;;;;21.37;13.68;;;;;;;7.28;100.00;99521.56;5569584;32;34121;-87
2023/01/09 03:39:14;;;;;;;21.67;13.75;;;;;;;7.21;100.00;99510.47;5569857;32;34195;-88
2023/01/09 03:42:17;;;;;;;21.75;14.32;;;;;;;7.32;100.00;99506.44;5569782;32;33687;-88
2023/01/09 03:45:20;;;;;;;23.45;14.55;;;;;;;7.33;100.00;99508.16;5569942;32;34111;-88
2023/01/09 03:48:23;;;;;;;23.15;13.75;;;;;;;7.32;100.00;99498.50;5570490;32;34746;-88
2023/01/09 03:51:26;;;;;;;22.27;13.90;;;;;;;7.33;100.00;99497.59;5569792;32;34531;-88
2023/01/09 03:54:29;;;;;;;20.55;14.02;;;;;;;7.27;100.00;99496.13;5569864;32;35051;-89
2023/01/09 03:57:31;;;;;;;24.87;14.98;;;;;;;7.39;100.00;99490.22;5569257;32;33960;-89
2023/01/09 04:00:34;;;;;;;20.83;13.90;;;;;;;7.32;100.00;99486.19;5569060;32;34832;-89
2023/01/09 04:03:38;;;;;;;21.15;13.95;;;;;;;7.35;100.00;99487.81;5568804;32;34381;-88
2023/01/09 04:06:40;;;;;;;23.15;13.48;;;;;;;7.35;100.00;99491.28;5568996;32;34638;-89
2023/01/09 04:09:43;;;;;;;23.38;14.27;;;;;;;7.30;100.00;99492.47;5568158;32;32766;-89
2023/01/09 04:12:46;;;;;;;22.23;14.55;;;;;;;7.28;100.00;99487.25;5569214;32;34734;-89
2023/01/09 04:15:49;;;;;;;21.33;14.20;;;;;;;7.20;100.00;99485.00;5569590;32;34251;-88
2023/01/09 04:18:51;;;;;;;25.67;15.05;;;;;;;7.24;100.00;99493.66;5571574;32;33782;-88
2023/01/09 04:21:54;;;;;;;22.17;13.02;;;;;;;7.21;100.00;99488.50;5573941;32;34697;-88
2023/01/09 04:24:57;;;;;;;21.40;13.48;;;;;;;7.30;100.00;99493.34;5576015;32;34546;-89
2023/01/09 04:28:00;;;;;;;21.00;13.80;;;;;;;7.27;100.00;99488.19;5579631;32;33934;-89
2023/01/09 04:31:02;;;;;;;22.65;13.80;;;;;;;7.39;100.00;99494.66;5570089;32;33537;-88
2023/01/09 04:34:05;;;;;;;23.30;13.77;;;;;;;7.41;100.00;99485.72;5569866;32;35523;-88
2023/01/09 04:37:08;;;;;;;19.37;13.15;;;;;;;7.46;100.00;99490.78;5569480;32;33845;-88
2023/01/09 04:40:11;;;;;;;21.37;13.88;;;;;;;7.36;100.00;99495.66;5570343;32;32580;-88
2023/01/09 04:43:14;;;;;;;23.48;13.68;;;;;;;7.37;100.00;99491.22;5571983;32;33987;-89
2023/01/09 04:46:17;;;;;;;21.73;13.82;;;;;;;7.34;100.00;99501.94;5574510;32;34321;-88
2023/01/09 04:49:20;;;;;;;24.70;13.68;;;;;;;7.45;100.00;99504.91;5582074;32;34675;-88
2023/01/09 04:52:23;;;;;;;23.83;13.50;;;;;;;7.38;100.00;99498.22;5577894;32;34972;-88
2023/01/09 04:55:25;;;;;;;23.35;14.15;;;;;;;7.30;100.00;99497.75;5568885;32;33945;-89
2023/01/09 04:58:28;;;;;;;20.02;13.88;;;;;;;7.22;100.00;99500.75;5569359;32;35069;-88
2023/01/09 05:01:31;;;;;;;23.48;13.38;;;;;;;7.23;100.00;99497.19;5568789;32;34869;-88
2023/01/09 05:04:35;;;;;;;21.40;14.07;;;;;;;7.18;100.00;99491.31;5568918;32;34797;-88
2023/01/09 05:07:38;;;;;;;21.50;14.27;;;;;;;7.12;100.00;99498.59;5568967;32;34754;-88
2023/01/09 05:10:41;;;;;;;22.27;14.38;;;;;;;7.13;100.00;99491.53;5569398;32;34185;-88
2023/01/09 05:13:44;;;;;;;23.98;14.25;;;;;;;7.09;100.00;99493.47;5570457;32;34128;-88
2023/01/09 05:16:47;;;;;;;23.42;14.45;;;;;;;7.19;100.00;99491.22;5569614;32;33987;-88
2023/01/09 05:19:49;;;;;;;23.65;14.38;;;;;;;7.13;100.00;99484.47;5570357;32;33905;-88
2023/01/09 05:22:52;;;;;;;22.33;15.13;;;;;;;7.17;100.00;99487.81;5569653;32;33850;-88
2023/01/09 05:25:55;;;;;;;20.83;14.45;;;;;;;7.15;100.00;99487.03;5569321;32;34060;-88
2023/01/09 05:28:58;;;;;;;23.67;14.87;;;;;;;7.11;100.00;99481.06;5567872;32;33060;-88
2023/01/09 05:32:01;;;;;;;23.15;14.15;;;;;;;7.20;100.00;99479.72;5570298;32;34844;-88
2023/01/09 05:35:04;;;;;;;23.83;14.02;;;;;;;7.16;100.00;99475.56;5567565;32;33602;-87
2023/01/09 05:38:07;;;;;;;23.17;13.65;;;;;;;7.03;100.00;99474.47;5569279;32;33742;-87
2023/01/09 05:41:10;;;;;;;20.62;14.15;;;;;;;7.07;100.00;99462.81;5571924;32;34597;-87
2023/01/09 05:44:13;;;;;;;22.75;14.52;;;;;;;7.01;100.00;99472.72;5583804;32;33908;-87
2023/01/09 05:47:16;;;;;;;23.87;14.57;;;;;;;6.98;100.00;99474.66;5569596;32;34961;-87
2023/01/09 05:50:19;;;;;;;21.48;14.38;;;;;;;7.01;100.00;99462.19;5568993;32;34150;-87
2023/01/09 05:53:22;;;;;;;21.73;14.20;;;;;;;6.99;100.00;99460.59;5568163;32;33009;-87
2023/01/09 05:56:25;;;;;;;23.00;14.55;;;;;;;6.99;100.00;99471.97;5568092;32;34570;-87
2023/01/09 05:59:27;;;;;;;21.77;14.68;;;;;;;6.96;100.00;99468.63;5568337;32;34030;-88
2023/01/09 06:02:33;;;;;;;24.87;14.75;;;;;;;6.94;100.00;99473.13;5579624;32;32599;-88
2023/01/09 06:05:36;;;;;;;22.83;14.25;;;;;;;6.93;100.00;99477.53;5578778;32;35478;-88
2023/01/09 06:08:39;;;;;;;25.23;15.98;;;;;;;6.99;100.00;99481.69;5567293;32;33234;-87
2023/01/09 06:11:42;;;;;;;24.42;15.85;;;;;;;6.93;100.00;99472.28;5568082;32;34590;-88
2023/01/09 06:14:45;;;;;;;24.15;15.57;;;;;;;6.94;100.00;99471.34;5568202;32;34754;-88
2023/01/09 06:17:48;;;;;;;22.25;14.15;;;;;;;6.98;100.00;99470.25;5567895;32;33710;-88
2023/01/09 06:20:51;;;;;;;26.75;15.35;;;;;;;7.06;100.00;99472.53;5556625;32;32879;-89
2023/01/09 06:23:55;;;;;;;23.08;14.73;;;;;;;7.06;100.00;99475.16;5581307;32;33677;-88
2023/01/09 06:30:52;;;;;;;23.17;14.93;;;;;;;7.13;100.00;99475.69;2394435;30;20078;-88
2023/01/09 06:33:55;;;;;;;22.35;14.55;;;;;;;7.13;100.00;99483.59;5512158;32;34016;-88
2023/01/09 06:36:58;;;;;;;21.80;13.65;;;;;;;7.12;100.00;99492.47;5510475;32;34681;-88
2023/01/09 06:40:01;;;;;;;21.50;13.68;;;;;;;7.26;100.00;99489.97;5510834;32;34683;-90
2023/01/09 06:43:03;;;;;;;23.65;14.40;;;;;;;7.32;100.00;99501.16;5524954;32;33615;-88
2023/01/09 06:46:06;;;;;;;20.60;13.35;;;;;;;7.24;100.00;99501.56;5530699;32;33891;-89
2023/01/09 06:49:09;;;;;;;21.40;13.50;;;;;;;7.22;100.00;99496.34;5534152;32;32056;-89
2023/01/09 06:52:13;;;;;;;19.55;12.93;;;;;;;7.31;100.00;99499.44;5521604;32;34911;-89
2023/01/09 06:55:16;;;;;;;20.60;13.65;;;;;;;7.24;100.00;99504.19;5529733;32;34420;-89
2023/01/09 06:58:19;;;;;;;20.55;13.13;;;;;;;7.21;100.00;99499.94;5515424;32;33928;-89
2023/01/09 07:01:22;;;;;;;21.83;12.90;;;;;;;7.10;100.00;99497.81;5529020;32;34223;-89
2023/01/09 07:04:25;;;;;;;21.40;13.45;;;;;;;7.05;100.00;99499.84;5528155;32;33992;-89
2023/01/09 07:07:28;;;;;;;24.65;13.93;;;;;;;7.07;100.00;99499.75;5523395;26;34802;-89
2023/01/09 07:10:31;;;;;;;22.98;13.98;;;;;;;7.05;100.00;99499.84;5526142;27;33940;-89
2023/01/09 07:17:19;;;;;;;23.60;14.43;;;;;;;6.94;100.00;99494.22;2387500;30;20572;-88
2023/01/09 07:20:22;;;;;;;21.60;13.57;;;;;;;6.87;100.00;99486.62;5482033;32;33086;-87
2023/01/09 07:23:25;;;;;;;22.92;13.15;;;;;;;6.81;100.00;99486.91;5513700;27;33002;-88
2023/01/09 07:41:42;;;;;;;33.65;13.88;;;;;;;6.85;100.00;99485.81;4777857;27;20095;-92
2023/01/09 07:44:46;;;;;;;23.42;14.15;;;;;;;6.87;100.00;99470.81;5517273;32;35118;-92
2023/01/09 07:48:00;;;;;;;22.70;13.57;;;;;;;6.87;100.00;99459.37;5511446;32;34029;-89
2023/01/09 07:51:04;;;;;;;19.40;12.07;;;;;;;6.91;100.00;99462.72;5509396;32;35696;-89
2023/01/09 07:54:08;;;;;;;21.50;13.35;;;;;;;6.98;100.00;99458.84;5509783;32;34153;-89
2023/01/09 08:20:11;;;;;;;22.37;14.10;;;;;;;6.59;100.00;99460.75;3110143;26;20138;-89
2023/01/09 08:23:14;;;;;;;21.67;13.50;;;;;;;6.58;100.00;99465.16;5493403;32;32907;-90
2023/01/09 08:26:18;;;;;;;22.20;14.82;;;;;;;6.65;100.00;99455.19;5492551;32;34583;-89
2023/01/09 08:29:22;;;;;;;24.80;13.48;;;;;;;6.51;100.00;99452.34;5499934;32;33786;-89
2023/01/09 08:32:27;;;;;;;19.60;13.13;;;;;;;6.64;100.00;99442.06;5499838;32;35069;-89
2023/01/09 08:35:43;;;;;;;22.98;14.07;;;;;;;6.42;100.00;99457.12;5501381;32;33211;-89
2023/01/09 08:38:46;;;;;;;25.98;14.30;;;;;;;6.15;100.00;99473.31;5502557;32;33244;-89
2023/01/09 08:48:52;;;;;;;23.00;13.45;;;;;;;5.95;100.00;99463.62;5498810;32;33851;-88
2023/01/09 08:51:55;;;;;;;26.23;14.43;;;;;;;5.82;100.00;99471.22;5493270;32;34038;-88
2023/01/09 08:54:58;;;;;;;22.67;13.70;;;;;;;5.76;100.00;99464.47;5506036;32;34568;-88
2023/01/09 08:58:01;;;;;;;26.65;14.90;;;;;;;5.72;100.00;99476.03;5497475;32;34922;-88
2023/01/09 09:01:06;;;;;;;26.15;14.48;;;;;;;5.72;100.00;99468.13;5490270;32;33144;-89
2023/01/09 09:04:09;;;;;;;25.08;14.85;;;;;;;5.76;100.00;99477.63;5495268;32;33803;-88
2023/01/09 09:07:12;;;;;;;24.00;15.05;;;;;;;5.77;100.00;99473.19;5501880;32;34698;-90
2023/01/09 09:10:18;;;;;;;29.10;15.10;;;;;;;5.61;100.00;99471.25;5494366;32;34228;-89
2023/01/09 09:13:21;;;;;;;25.33;14.32;;;;;;;5.52;100.00;99448.81;5495421;32;33248;-88
2023/01/09 09:16:24;;;;;;;21.48;13.95;;;;;;;5.40;100.00;99447.56;5504782;32;34167;-88
2023/01/09 09:19:27;;;;;;;24.10;14.70;;;;;;;5.35;100.00;99431.16;5497076;32;34295;-87
2023/01/09 09:22:30;;;;;;;27.90;15.00;;;;;;;5.43;100.00;99436.06;5490671;32;32642;-88
2023/01/09 09:25:37;;;;;;;24.30;14.82;;;;;;;5.31;100.00;99432.19;5488572;32;32751;-88
2023/01/09 09:28:39;;;;;;;26.45;15.35;;;;;;;5.34;100.00;99428.59;5494417;32;34693;-88
2023/01/09 09:31:42;;;;;;;26.25;15.80;;;;;;;5.39;100.00;99432.72;5495079;32;34996;-88
2023/01/09 09:34:45;;;;;;;28.00;15.15;;;;;;;5.37;100.00;99433.69;5492683;32;34435;-88
2023/01/09 09:37:55;;;;;;;28.20;16.30;;;;;;;5.34;100.00;99416.28;5494424;32;34753;-87
2023/01/09 09:45:31;;;;;;;25.37;14.87;;;;;;;5.37;100.00;99415.28;5498445;32;34024;-88
2023/01/09 09:48:36;;;;;;;23.73;14.20;;;;;;;5.44;100.00;99415.88;5494790;32;34133;-88
2023/01/09 09:52:13;;;;;;;24.25;14.65;;;;;;;5.40;100.00;99415.16;5490408;32;35410;-88
2023/01/09 09:55:39;;;;;;;25.95;15.40;;;;;;;5.35;100.00;99410.12;5485364;32;34707;-89
2023/01/09 09:58:59;;;;;;;25.02;15.88;;;;;;;5.29;100.00;99396.38;5495776;32;34207;-89
2023/01/09 10:02:20;;;;;;;25.83;15.68;;;;;;;5.08;100.00;99394.59;5501971;32;34233;-87
2023/01/09 10:05:47;;;;;;;26.23;15.27;;;;;;;5.13;100.00;99399.66;5464312;32;32808;-89
2023/01/09 10:09:15;;;;;;;27.50;16.05;;;;;;;5.20;100.00;99402.88;5492670;32;34948;-88
2023/01/09 10:12:26;;;;;;;27.30;16.80;;;;;;;4.98;100.00;99402.03;5502543;26;34373;-88
2023/01/09 10:15:40;;;;;;;26.62;16.27;;;;;;;4.85;100.00;99396.44;5480880;32;34677;-90
2023/01/09 10:19:06;;;;;;;30.23;16.83;;;;;;;4.81;100.00;99400.09;5521761;26;35362;-90
2023/01/09 10:22:14;;;;;;;31.42;17.00;;;;;;;4.90;100.00;99398.87;5437924;32;33915;-87
2023/01/09 10:25:43;;;;;;;29.63;16.95;;;;;;;4.74;100.00;99398.66;5454727;32;34714;-87
2023/01/09 10:28:52;;;;;;;31.05;16.70;;;;;;;4.74;100.00;99387.28;5469399;32;35436;-87
2023/01/09 10:32:26;;;;;;;29.75;17.80;;;;;;;4.76;100.00;99386.31;5454453;32;32823;-87
2023/01/09 10:35:45;;;;;;;28.75;17.48;;;;;;;4.75;100.00;99383.72;5458537;32;35320;-87
2023/01/09 10:38:51;;;;;;;;;;;;;;;4.59;100.00;99371.25;5455806;32;33675;-87
2023/01/09 10:42:30;;;;;;;28.67;18.45;;;;;;;4.75;100.00;99366.22;5456634;32;34383;-87
2023/01/09 10:45:49;;;;;;;31.12;17.80;;;;;;;4.69;100.00;99366.47;5427739;32;33908;-87
2023/01/09 10:49:00;;;;;;;29.45;17.62;;;;;;;4.59;100.00;99366.81;5454997;32;34826;-88
2023/01/09 10:52:04;;;;;;;30.63;18.50;;;;;;;4.61;100.00;99364.16;5459297;32;33983;-87
2023/01/09 10:55:18;;;;;;;30.55;18.10;;;;;;;4.69;100.00;99359.41;5506421;27;33390;-88
2023/01/09 10:58:22;;;;;;;32.97;18.92;;;;;;;4.74;100.00;99358.38;5477324;32;34717;-87
2023/01/09 11:01:37;;;;;;;27.45;18.55;;;;;;;4.69;100.00;99359.41;5478331;32;34200;-87
2023/01/09 11:04:42;;;;;;;31.27;18.25;;;;;;;4.74;100.00;99340.84;5476247;32;33965;-88
2023/01/09 11:15:27;;;;;;;36.08;19.75;;;;;;;4.70;100.00;99334.00;1056718;27;21061;-89
2023/01/09 11:18:34;;;;;;;30.58;19.35;;;;;;;4.87;100.00;99317.50;5446908;32;32504;-86
2023/01/09 11:21:40;;;;;;;31.73;19.58;;;;;;;4.81;100.00;99310.75;5513156;27;32559;-87
2023/01/09 11:24:43;;;;;;;33.10;20.50;;;;;;;4.90;100.00;99306.87;5498428;32;33618;-87
2023/01/09 11:28:12;;;;;;;32.60;19.20;;;;;;;4.97;100.00;99312.72;5504141;32;33639;-87
2023/01/09 11:31:23;;;;;;;32.35;19.92;;;;;;;4.94;100.00;99308.44;5510111;32;34268;-87
2023/01/09 11:34:30;;;;;;;35.05;20.37;;;;;;;4.97;100.00;99310.09;5496563;32;33297;-87
2023/01/09 11:37:33;;;;;;;34.78;20.15;;;;;;;4.80;100.00;99302.94;5507658;32;34869;-88
2023/01/09 11:40:49;;;;;;;31.80;19.40;;;;;;;4.85;100.00;99306.22;5505221;32;33888;-88
2023/01/09 11:43:58;;;;;;;34.88;19.55;;;;;;;4.87;100.00;99304.38;5507308;32;33934;-91
2023/01/09 11:47:25;;;;;;;35.83;20.10;;;;;;;4.90;100.00;99298.13;5518956;32;34188;-88
2023/01/09 11:50:30;;;;;;;33.42;18.98;;;;;;;4.90;100.00;99304.25;5524596;32;34933;-87
2023/01/09 11:53:54;;;;;;;33.47;20.52;;;;;;;4.92;100.00;99297.16;5500412;32;34697;-88
2023/01/09 11:56:57;;;;;;;33.22;19.02;;;;;;;4.97;100.00;99297.81;5503025;32;34549;-86
2023/01/09 12:00:32;;;;;;;30.90;19.20;;;;;;;4.96;100.00;99296.09;5511577;32;34116;-86
2023/01/09 12:04:09;;;;;;;32.60;19.45;;;;;;;4.98;100.00;99296.03;5517430;32;34446;-89
2023/01/09 12:07:32;;;;;;;32.97;19.25;;;;;;;5.02;100.00;99299.37;5500133;32;32551;-89
2023/01/09 12:10:43;;;;;;;30.80;18.48;;;;;;;5.07;100.00;99286.88;5516071;32;34265;-87
2023/01/09 12:17:50;;;;;;;30.58;19.20;;;;;;;5.06;100.00;99277.28;2447579;30;20081;-88
2023/01/09 12:21:15;;;;;;;31.73;19.15;;;;;;;5.06;100.00;99272.03;5512699;32;34725;-87
2023/01/09 12:24:34;;;;;;;31.62;19.30;;;;;;;5.14;100.00;99267.31;5502156;32;34650;-87
2023/01/09 12:28:03;;;;;;;32.50;19.40;;;;;;;5.15;100.00;99263.75;5512348;32;34136;-88
2023/01/09 12:31:24;;;;;;;27.48;18.50;;;;;;;5.24;100.00;99260.69;5510853;32;34498;-88
2023/01/09 12:35:11;;;;;;;31.75;20.27;;;;;;;5.32;100.00;99268.22;5493799;32;33533;-87
2023/01/09 12:38:35;;;;;;;31.10;20.45;;;;;;;5.36;100.00;99269.81;5473801;32;34007;-88
2023/01/09 12:41:56;;;;;;;37.30;21.20;;;;;;;5.18;100.00;99257.50;5499708;32;32456;-88
2023/01/09 12:45:23;;;;;;;35.55;21.45;;;;;;;5.11;100.00;99264.78;5513342;32;34544;-88
2023/01/09 12:48:41;;;;;;;36.63;21.42;;;;;;;5.24;100.00;99251.97;5510987;32;34353;-88
2023/01/09 12:52:21;;;;;;;36.25;22.13;;;;;;;5.32;100.00;99244.56;5497692;32;34462;-88
2023/01/09 12:56:10;;;;;;;34.35;21.25;;;;;;;5.35;100.00;99239.16;5512038;32;34476;-89
2023/01/09 12:59:38;;;;;;;34.83;21.00;;;;;;;5.44;100.00;99237.03;5460955;32;33902;-88
2023/01/09 13:02:52;;;;;;;34.80;21.25;;;;;;;5.38;100.00;99236.38;5520335;32;32493;-88
2023/01/09 13:06:14;;;;;;;34.35;22.75;;;;;;;5.37;100.00;99225.94;5521381;32;35296;-88
2023/01/09 13:09:25;;;;;;;40.83;23.60;;;;;;;5.35;100.00;99227.78;5513834;32;34658;-88
2023/01/09 13:12:34;;;;;;;37.42;22.15;;;;;;;5.34;100.00;99226.91;5503672;32;32969;-88
2023/01/09 13:15:46;;;;;;;37.38;22.95;;;;;;;5.36;100.00;99225.09;5508065;32;35082;-87
2023/01/09 13:19:02;;;;;;;35.40;22.20;;;;;;;5.46;100.00;99228.12;5492983;32;34174;-87
2023/01/09 13:22:06;;;;;;;37.53;22.50;;;;;;;5.42;100.00;99226.56;5493903;32;33214;-87
2023/01/09 13:25:46;;;;;;;41.42;23.85;;;;;;;5.36;100.00;99218.97;5497812;32;32622;-87
2023/01/09 13:29:02;;;;;;;37.70;22.57;;;;;;;5.35;100.00;99212.88;5501400;32;34211;-87
2023/01/09 13:32:16;;;;;;;40.50;23.65;;;;;;;5.37;100.00;99216.28;5491369;32;33004;-87
2023/01/09 13:35:19;;;;;;;40.20;23.60;;;;;;;5.37;100.00;99221.53;5503564;32;32824;-87
2023/01/09 13:38:25;;;;;;;38.10;22.98;;;;;;;5.37;100.00;99225.94;5524695;32;35348;-87
2023/01/09 13:44:55;;;;;;;39.53;24.12;;;;;;;5.34;100.00;99231.34;5510739;32;34682;-88
2023/01/09 13:48:10;;;;;;;40.25;24.42;;;;;;;5.34;100.00;99226.09;5496913;32;33269;-87
2023/01/09 13:51:45;;;;;;;41.35;25.02;;;;;;;5.38;100.00;99235.56;5496567;32;32885;-88
2023/01/09 13:54:54;;;;;;;43.47;24.50;;;;;;;5.44;100.00;99227.38;5473191;32;34550;-88
2023/01/09 13:58:03;;;;;;;42.62;25.55;;;;;;;5.45;100.00;99223.81;5512882;32;34186;-87
2023/01/09 14:01:21;;;;;;;38.80;24.45;;;;;;;5.45;100.00;99234.34;5503488;32;34684;-88
2023/01/09 14:04:40;;;;;;;39.63;23.73;;;;;;;5.48;100.00;99234.16;5497751;32;33800;-92
2023/01/09 14:07:48;;;;;;;36.20;23.67;;;;;;;5.43;100.00;99232.69;5502492;32;33791;-89
2023/01/09 14:10:59;;;;;;;39.78;23.38;;;;;;;5.48;100.00;99238.59;5510547;32;33810;-88
2023/01/09 14:14:06;;;;;;;39.90;23.23;;;;;;;5.55;100.00;99250.53;5497746;32;32992;-88
2023/01/09 14:17:32;;;;;;;40.70;24.48;;;;;;;5.50;100.00;99247.25;5510344;32;34128;-87
2023/01/09 14:20:38;;;;;;;41.15;24.80;;;;;;;5.48;100.00;99242.06;5497061;32;32862;-87
2023/01/09 14:23:55;;;;;;;39.92;25.12;;;;;;;5.37;100.00;99231.19;5512502;32;34893;-87
2023/01/09 14:27:02;;;;;;;42.22;24.35;;;;;;;5.37;100.00;99232.06;5513914;32;34142;-88
2023/01/09 14:30:16;;;;;;;41.40;25.27;;;;;;;5.35;100.00;99236.53;5502971;32;33296;-87
2023/01/09 14:33:19;;;;;;;40.70;25.58;;;;;;;5.38;100.00;99236.38;5521297;32;141035;-85
2023/01/09 14:36:26;;;;;;;43.17;25.40;;;;;;;5.42;100.00;99236.25;5517696;32;34997;-88
2023/01/09 14:39:32;;;;;;;41.10;25.60;;;;;;;5.44;100.00;99232.63;5517623;32;34666;-88
2023/01/09 14:42:39;;;;;;;39.85;26.25;;;;;;;5.44;100.00;99237.91;5512329;32;33718;-87
2023/01/09 14:45:46;;;;;;;46.03;26.05;;;;;;;5.42;100.00;99223.94;5492062;32;33873;-88
2023/01/09 14:49:05;;;;;;;48.72;26.73;;;;;;;5.34;100.00;99223.47;5512670;32;33923;-88
2023/01/09 14:52:20;;;;;;;42.95;25.62;;;;;;;5.32;100.00;99218.25;5519376;32;34093;-93
2023/01/09 14:55:37;;;;;;;48.95;26.35;;;;;;;5.36;100.00;99216.34;5513944;32;34631;-88
2023/01/09 14:58:39;;;;;;;42.67;26.30;;;;;;;5.41;100.00;99214.34;5495999;32;32963;-89
2023/01/09 15:01:48;;;;;;;45.03;26.20;;;;;;;5.38;100.00;99225.88;5513092;32;34089;-88
2023/01/09 15:04:54;;;;;;;45.42;27.10;;;;;;;5.40;100.00;99231.91;5508792;32;33902;-88
2023/01/09 15:08:02;;;;;;;44.17;27.05;;;;;;;5.39;100.00;99229.34;5496926;32;33756;-89
2023/01/09 15:11:05;;;;;;;43.78;26.37;;;;;;;5.35;100.00;99231.28;5510350;32;34063;-89
2023/01/09 15:14:25;;;;;;;44.45;26.05;;;;;;;5.38;100.00;99227.66;5509204;32;33784;-88
2023/01/09 15:17:31;;;;;;;43.55;25.37;;;;;;;5.51;100.00;99227.91;5509453;32;34674;-89
2023/01/09 15:20:37;;;;;;;42.58;26.30;;;;;;;5.33;100.00;99227.00;5509606;32;34079;-88
2023/01/09 15:23:39;;;;;;;43.35;26.75;;;;;;;5.15;100.00;99228.69;5486813;32;33575;-88
2023/01/09 15:26:54;;;;;;;45.67;27.55;;;;;;;5.13;100.00;99226.13;5497209;32;34188;-87
2023/01/09 15:30:14;;;;;;;43.90;26.37;;;;;;;5.14;100.00;99222.59;5493415;32;34465;-87
2023/01/09 15:33:17;;;;;;;44.33;26.30;;;;;;;5.23;100.00;99237.94;5492639;32;34548;-87
2023/01/09 15:36:29;;;;;;;43.45;27.02;;;;;;;5.25;100.00;99228.19;5493787;32;35307;-87
2023/01/09 15:39:37;;;;;;;45.55;26.85;;;;;;;5.32;100.00;99239.31;5478489;32;33633;-87
2023/01/09 15:42:54;;;;;;;48.80;27.92;;;;;;;5.26;100.00;99231.69;5503646;32;34199;-87
2023/01/09 15:45:59;;;;;;;49.13;28.00;;;;;;;5.18;100.00;99228.56;5501782;32;33931;-91